createdAt,value
2019-05-17T17:38:38.526Z,19.79
2019-05-17T17:39:38.955Z,19.86
2019-05-17T17:41:33.532Z,19.86
2019-05-17T17:42:33.966Z,19.79
2019-05-17T17:44:28.538Z,19.73
2019-05-17T17:45:28.971Z,19.67
2019-05-17T17:47:23.559Z,19.64
2019-05-17T17:48:23.994Z,19.63
2019-05-17T17:50:19.564Z,19.63
2019-05-17T17:51:19.996Z,19.63
2019-05-17T17:53:15.544Z,19.64
2019-05-17T17:54:15.978Z,19.58
2019-05-17T17:56:13.385Z,19.51
2019-05-17T17:57:10.984Z,19.47
2019-05-17T17:59:05.598Z,19.48
2019-05-17T18:00:06.040Z,19.51
2019-05-17T18:02:00.619Z,19.49
2019-05-17T18:03:01.051Z,19.41
2019-05-17T18:04:55.635Z,19.37
2019-05-17T18:05:56.057Z,19.33
2019-05-17T18:07:50.644Z,19.26
2019-05-17T18:08:51.090Z,19.24
2019-05-17T18:10:46.682Z,19.27
2019-05-17T18:11:46.096Z,19.33
2019-05-17T18:13:41.657Z,19.21
2019-05-17T18:14:42.087Z,19.19
2019-05-17T18:16:37.651Z,19.02
2019-05-17T18:17:39.445Z,19.00
2019-05-17T18:18:38.512Z,19.07
2019-05-17T18:19:38.952Z,19.04
2019-05-17T18:20:39.401Z,19.09
2019-05-17T18:21:39.831Z,19.00
2019-05-17T18:22:40.276Z,18.96
2019-05-17T18:23:40.722Z,18.89
2019-05-17T18:24:41.141Z,18.89
2019-05-17T18:25:41.580Z,18.74
2019-05-17T18:26:42.008Z,18.73
2019-05-17T18:27:42.455Z,18.53
2019-05-17T18:28:42.891Z,18.56
2019-05-17T18:29:43.321Z,18.56
2019-05-17T18:30:43.762Z,18.55
2019-05-17T18:31:44.195Z,18.53
2019-05-17T18:32:44.635Z,18.56
2019-05-17T18:33:45.070Z,18.45
2019-05-17T18:34:45.510Z,18.43
2019-05-17T18:35:45.947Z,18.45
2019-05-17T18:36:46.377Z,18.43
2019-05-17T18:37:46.816Z,18.34
2019-05-17T18:38:47.251Z,18.31
2019-05-17T18:39:47.699Z,18.31
2019-05-17T18:40:48.141Z,18.40
2019-05-17T18:41:48.557Z,18.23
2019-05-17T18:42:48.995Z,18.23
2019-05-17T18:43:49.432Z,18.19
2019-05-17T18:44:49.872Z,18.20
2019-05-17T18:45:50.301Z,18.15
2019-05-17T18:46:50.751Z,18.04
2019-05-17T18:47:51.178Z,18.07
2019-05-17T18:48:51.612Z,18.13
2019-05-17T18:49:52.062Z,18.01
2019-05-17T18:50:52.488Z,18.04
2019-05-17T18:51:52.923Z,17.98
2019-05-17T18:52:53.359Z,17.98
2019-05-17T18:53:53.797Z,17.90
2019-05-17T18:54:54.244Z,17.92
2019-05-17T18:55:54.660Z,17.86
2019-05-17T18:56:55.102Z,17.85
2019-05-17T18:57:55.536Z,17.78
2019-05-17T18:58:55.975Z,17.76
2019-05-17T18:59:56.411Z,17.72
2019-05-17T19:00:56.848Z,17.80
2019-05-17T19:01:57.283Z,17.78
2019-05-17T19:02:57.712Z,17.76
2019-05-17T19:03:58.148Z,17.72
2019-05-17T19:04:58.597Z,17.63
2019-05-17T19:05:59.024Z,17.67
2019-05-17T19:06:59.471Z,17.64
2019-05-17T19:07:59.891Z,17.74
2019-05-17T19:09:00.339Z,17.57
2019-05-17T19:10:00.756Z,17.59
2019-05-17T19:11:01.204Z,17.60
2019-05-17T19:12:01.647Z,17.60
2019-05-17T19:13:02.080Z,17.63
2019-05-17T19:14:02.510Z,17.67
2019-05-17T19:15:02.946Z,17.64
2019-05-17T19:16:03.375Z,17.60
2019-05-17T19:17:03.811Z,17.64
2019-05-17T19:18:04.251Z,17.63
2019-05-17T19:19:04.686Z,17.59
2019-05-17T19:20:05.127Z,17.59
2019-05-17T19:21:05.563Z,17.54
2019-05-17T19:22:05.993Z,17.64
2019-05-17T19:23:06.429Z,17.63
2019-05-17T19:24:06.856Z,17.57
2019-05-17T19:25:07.305Z,17.63
2019-05-17T19:26:07.745Z,17.39
2019-05-17T19:27:08.168Z,17.52
2019-05-17T19:28:08.602Z,17.63
2019-05-17T19:29:09.036Z,17.54
2019-05-17T19:30:09.474Z,17.54
2019-05-17T19:31:09.908Z,17.49
2019-05-17T19:32:10.348Z,17.51
2019-05-17T19:33:10.778Z,17.52
2019-05-17T19:34:11.217Z,17.46
2019-05-17T19:35:11.648Z,17.39
2019-05-17T19:36:12.087Z,17.36
2019-05-17T19:37:12.523Z,17.39
2019-05-17T19:38:12.954Z,17.34
2019-05-17T19:39:13.391Z,17.34
2019-05-17T19:40:13.836Z,17.34
2019-05-17T19:41:14.257Z,17.30
2019-05-17T19:42:14.702Z,17.30
2019-05-17T19:43:15.135Z,17.15
2019-05-17T19:44:15.565Z,17.27
2019-05-17T19:45:16.000Z,17.22
2019-05-17T19:46:16.435Z,17.30
2019-05-17T19:47:16.870Z,17.36
2019-05-17T19:48:19.780Z,17.38
2019-05-17T19:49:17.738Z,17.34
2019-05-17T19:50:18.173Z,17.33
2019-05-17T19:51:18.609Z,17.36
2019-05-17T19:52:19.044Z,17.27
2019-05-17T19:53:19.481Z,17.38
2019-05-17T19:54:19.916Z,17.33
2019-05-17T19:55:20.347Z,17.33
2019-05-17T19:56:20.794Z,17.23
2019-05-17T19:57:21.225Z,17.27
2019-05-17T19:58:21.655Z,17.29
2019-05-17T19:59:22.089Z,17.26
2019-05-17T20:00:22.531Z,17.30
2019-05-17T20:01:22.958Z,17.23
2019-05-17T20:02:23.398Z,17.33
2019-05-17T20:03:23.827Z,17.27
2019-05-17T20:04:24.263Z,17.24
2019-05-17T20:05:24.700Z,17.14
2019-05-17T20:06:25.134Z,17.11
2019-05-17T20:07:25.574Z,17.08
2019-05-17T20:08:26.000Z,17.08
2019-05-17T20:09:26.442Z,17.12
2019-05-17T20:10:26.884Z,17.12
2019-05-17T20:11:34.402Z,17.06
2019-05-17T20:12:27.745Z,17.02
2019-05-17T20:13:28.188Z,17.05
2019-05-17T20:14:28.616Z,17.09
2019-05-17T20:15:34.435Z,17.05
2019-05-17T20:16:29.481Z,17.14
2019-05-17T20:17:29.914Z,17.11
2019-05-17T20:18:30.353Z,17.15
2019-05-17T20:19:30.791Z,17.11
2019-05-17T20:20:31.220Z,17.04
2019-05-17T20:21:31.653Z,17.09
2019-05-17T20:22:32.092Z,17.02
2019-05-17T20:23:32.543Z,17.08
2019-05-17T20:24:32.970Z,17.02
2019-05-17T20:25:33.390Z,17.09
2019-05-17T20:26:33.833Z,17.09
2019-05-17T20:27:34.262Z,17.15
2019-05-17T20:28:34.696Z,17.05
2019-05-17T20:29:35.136Z,17.04
2019-05-17T20:30:35.564Z,16.96
2019-05-17T20:31:36.003Z,16.89
2019-05-17T20:32:36.447Z,16.91
2019-05-17T20:33:36.869Z,16.94
2019-05-17T20:34:37.304Z,17.01
2019-05-17T20:35:37.736Z,16.93
2019-05-17T20:36:38.175Z,17.02
2019-05-17T20:37:38.606Z,16.94
2019-05-17T20:38:39.040Z,16.86
2019-05-17T20:39:39.477Z,16.86
2019-05-17T20:40:39.912Z,16.86
2019-05-17T20:41:40.356Z,16.84
2019-05-17T20:42:40.788Z,16.78
2019-05-17T20:43:41.216Z,16.87
2019-05-17T20:44:41.651Z,16.81
2019-05-17T20:45:42.080Z,16.89
2019-05-17T20:46:42.530Z,16.89
2019-05-17T20:47:42.950Z,16.84
2019-05-17T20:48:43.383Z,16.86
2019-05-17T20:49:43.826Z,16.78
2019-05-17T20:50:44.253Z,16.79
2019-05-17T20:51:44.688Z,16.78
2019-05-17T20:52:45.124Z,16.78
2019-05-17T20:53:45.563Z,16.79
2019-05-17T20:54:45.991Z,16.75
2019-05-17T20:55:46.429Z,16.64
2019-05-17T20:56:46.857Z,16.64
2019-05-17T20:57:47.307Z,16.61
2019-05-17T20:58:47.730Z,16.65
2019-05-17T20:59:48.158Z,16.56
2019-05-17T21:00:48.622Z,16.66
2019-05-17T21:01:49.031Z,16.64
2019-05-17T21:02:49.465Z,16.66
2019-05-17T21:03:49.905Z,16.65
2019-05-17T21:04:50.330Z,16.54
2019-05-17T21:05:50.762Z,16.50
2019-05-17T21:06:51.207Z,16.42
2019-05-17T21:07:51.632Z,16.49
2019-05-17T21:08:52.064Z,16.54
2019-05-17T21:09:52.507Z,16.39
2019-05-17T21:10:52.935Z,16.54
2019-05-17T21:11:53.369Z,16.47
2019-05-17T21:12:53.811Z,16.46
2019-05-17T21:13:54.240Z,16.46
2019-05-17T21:14:56.493Z,16.41
2019-05-17T21:15:55.106Z,16.53
2019-05-17T21:16:55.538Z,16.46
2019-05-17T21:17:55.970Z,16.54
2019-05-17T21:18:56.413Z,16.42
2019-05-17T21:19:56.838Z,16.49
2019-05-17T21:20:57.269Z,16.35
2019-05-17T21:21:57.711Z,16.35
2019-05-17T21:22:58.143Z,16.39
2019-05-17T21:23:58.597Z,16.29
2019-05-17T21:24:59.012Z,16.35
2019-05-17T21:25:59.551Z,16.32
2019-05-17T21:26:59.872Z,16.31
2019-05-17T21:28:00.306Z,16.29
2019-05-17T21:29:00.740Z,16.32
2019-05-17T21:30:01.183Z,16.28
2019-05-17T21:31:01.613Z,16.23
2019-05-17T21:32:02.038Z,16.26
2019-05-17T21:33:02.517Z,16.24
2019-05-17T21:34:02.912Z,16.21
2019-05-17T21:35:03.346Z,16.10
2019-05-17T21:36:03.782Z,16.20
2019-05-17T21:37:04.209Z,16.23
2019-05-17T21:38:04.662Z,16.24
2019-05-17T21:39:05.071Z,16.24
2019-05-17T21:40:05.537Z,16.16
2019-05-17T21:41:05.958Z,16.23
2019-05-17T21:42:06.383Z,16.09
2019-05-17T21:43:06.808Z,16.15
2019-05-17T21:44:07.246Z,16.20
2019-05-17T21:45:07.677Z,16.21
2019-05-17T21:46:08.111Z,16.17
2019-05-17T21:47:08.546Z,16.13
2019-05-17T21:48:08.978Z,16.24
2019-05-17T21:49:09.408Z,16.23
2019-05-17T21:50:09.848Z,16.21
2019-05-17T21:51:10.288Z,16.23
2019-05-17T21:52:10.725Z,16.24
2019-05-17T21:53:11.146Z,16.24
2019-05-17T21:54:11.583Z,16.16
2019-05-17T21:55:12.017Z,16.24
2019-05-17T21:56:12.446Z,16.17
2019-05-17T21:57:12.886Z,16.13
2019-05-17T21:58:13.311Z,16.10
2019-05-17T21:59:13.750Z,16.01
2019-05-17T22:00:14.178Z,16.01
2019-05-17T22:01:14.614Z,16.02
2019-05-17T22:02:15.053Z,16.04
2019-05-17T22:03:15.485Z,15.95
2019-05-17T22:04:15.910Z,15.92
2019-05-17T22:05:16.345Z,15.92
2019-05-17T22:06:16.785Z,15.98
2019-05-17T22:07:17.269Z,15.94
2019-05-17T22:08:17.648Z,15.94
2019-05-17T22:09:18.087Z,15.88
2019-05-17T22:10:18.514Z,15.88
2019-05-17T22:11:18.945Z,15.67
2019-05-17T22:12:19.378Z,15.64
2019-05-17T22:13:19.816Z,15.68
2019-05-17T22:14:20.250Z,15.72
2019-05-17T22:15:20.692Z,15.65
2019-05-17T22:16:21.111Z,15.77
2019-05-17T22:17:21.544Z,15.70
2019-05-17T22:18:21.982Z,15.65
2019-05-17T22:19:22.411Z,15.67
2019-05-17T22:20:22.843Z,15.61
2019-05-17T22:21:23.283Z,15.65
2019-05-17T22:22:23.708Z,15.55
2019-05-17T22:23:24.143Z,15.58
2019-05-17T22:24:24.578Z,15.61
2019-05-17T22:25:25.037Z,15.61
2019-05-17T22:26:25.446Z,15.49
2019-05-17T22:27:25.919Z,15.65
2019-05-17T22:28:26.307Z,15.59
2019-05-17T22:29:26.750Z,15.57
2019-05-17T22:30:27.175Z,15.55
2019-05-17T22:31:27.619Z,15.55
2019-05-17T22:32:28.039Z,15.49
2019-05-17T22:33:28.475Z,15.46
2019-05-17T22:34:28.909Z,15.43
2019-05-17T22:35:29.345Z,15.44
2019-05-17T22:36:29.813Z,15.47
2019-05-17T22:37:30.230Z,15.44
2019-05-17T22:38:30.642Z,15.35
2019-05-17T22:39:31.065Z,15.40
2019-05-17T22:40:31.506Z,15.33
2019-05-17T22:41:31.936Z,15.31
2019-05-17T22:42:32.365Z,15.27
2019-05-17T22:43:32.796Z,15.22
2019-05-17T22:44:33.230Z,15.27
2019-05-17T22:45:33.664Z,15.27
2019-05-17T22:46:36.424Z,15.36
2019-05-17T22:47:34.523Z,15.25
2019-05-17T22:48:34.962Z,15.33
2019-05-17T22:49:35.395Z,15.22
2019-05-17T22:50:35.827Z,15.25
2019-05-17T22:51:36.264Z,15.25
2019-05-17T22:52:36.692Z,15.19
2019-05-17T22:53:37.123Z,15.24
2019-05-17T22:54:37.558Z,15.25
2019-05-17T22:55:37.991Z,15.22
2019-05-17T22:56:38.421Z,15.22
2019-05-17T22:57:38.859Z,15.15
2019-05-17T22:58:39.290Z,15.15
2019-05-17T22:59:39.721Z,15.10
2019-05-17T23:00:40.151Z,15.17
2019-05-17T23:01:40.583Z,15.21
2019-05-17T23:02:41.015Z,15.07
2019-05-17T23:03:41.455Z,15.10
2019-05-17T23:04:41.883Z,15.15
2019-05-17T23:05:42.315Z,15.14
2019-05-17T23:06:42.744Z,15.07
2019-05-17T23:07:43.180Z,15.14
2019-05-17T23:08:43.608Z,15.11
2019-05-17T23:09:44.042Z,15.14
2019-05-17T23:10:44.472Z,15.00
2019-05-17T23:11:44.916Z,14.97
2019-05-17T23:12:45.344Z,15.04
2019-05-17T23:13:45.771Z,15.03
2019-05-17T23:14:46.201Z,15.06
2019-05-17T23:15:46.631Z,15.04
2019-05-17T23:16:51.745Z,15.03
2019-05-17T23:17:47.494Z,15.04
2019-05-17T23:18:47.959Z,15.02
2019-05-17T23:19:48.359Z,15.03
2019-05-17T23:20:48.793Z,15.06
2019-05-17T23:21:49.224Z,14.99
2019-05-17T23:22:49.656Z,15.00
2019-05-17T23:23:50.089Z,15.00
2019-05-17T23:24:50.517Z,14.92
2019-05-17T23:25:50.969Z,14.97
2019-05-17T23:26:51.390Z,14.96
2019-05-17T23:27:51.819Z,14.86
2019-05-17T23:28:52.245Z,14.92
2019-05-17T23:29:52.677Z,15.00
2019-05-17T23:30:53.168Z,14.89
2019-05-17T23:31:53.580Z,14.89
2019-05-17T23:32:53.979Z,14.88
2019-05-17T23:33:54.408Z,14.94
2019-05-17T23:34:54.837Z,14.84
2019-05-17T23:35:55.272Z,14.92
2019-05-17T23:36:55.703Z,14.88
2019-05-17T23:37:56.131Z,14.89
2019-05-17T23:38:56.565Z,14.91
2019-05-17T23:39:56.991Z,14.89
2019-05-17T23:40:57.434Z,14.82
2019-05-17T23:41:57.857Z,14.84
2019-05-17T23:42:58.290Z,14.84
2019-05-17T23:43:58.727Z,14.72
2019-05-17T23:44:59.177Z,14.79
2019-05-17T23:45:59.590Z,14.72
2019-05-17T23:47:07.247Z,14.78
2019-05-17T23:48:00.444Z,14.82
2019-05-17T23:49:00.879Z,14.73
2019-05-17T23:50:01.364Z,14.69
2019-05-17T23:51:01.740Z,14.72
2019-05-17T23:52:02.173Z,14.68
2019-05-17T23:53:02.612Z,14.65
2019-05-17T23:54:03.037Z,14.59
2019-05-17T23:55:03.473Z,14.65
2019-05-17T23:56:03.908Z,14.66
2019-05-17T23:57:04.359Z,14.66
2019-05-17T23:58:04.761Z,14.72
2019-05-17T23:59:05.198Z,14.60
